sensor_id;sensor_type;location;lat;lon;timestamp;P1;durP1;ratioP1;P2;durP2;ratioP2
11797;SDS011;5956;51.428;6.682;2023-02-12T00:01:33;55.43;;;40.03;;
11797;SDS011;5956;51.428;6.682;2023-02-12T00:04:00;52.53;;;38.67;;
11797;SDS011;5956;51.428;6.682;2023-02-12T00:06:27;50.20;;;39.50;;
11797;SDS011;5956;51.428;6.682;2023-02-12T00:08:54;53.57;;;39.73;;
11797;SDS011;5956;51.428;6.682;2023-02-12T00:11:22;53.90;;;38.67;;
11797;SDS011;5956;51.428;6.682;2023-02-12T00:13:49;53.83;;;39.43;;
11797;SDS011;5956;51.428;6.682;2023-02-12T00:16:17;52.97;;;37.83;;
11797;SDS011;5956;51.428;6.682;2023-02-12T00:18:44;50.47;;;39.77;;
11797;SDS011;5956;51.428;6.682;2023-02-12T00:21:11;50.30;;;38.27;;
11797;SDS011;5956;51.428;6.682;2023-02-12T00:23:39;50.10;;;39.03;;
11797;SDS011;5956;51.428;6.682;2023-02-12T00:26:06;52.37;;;38.97;;
11797;SDS011;5956;51.428;6.682;2023-02-12T00:28:34;49.70;;;37.60;;
11797;SDS011;5956;51.428;6.682;2023-02-12T00:31:05;50.97;;;39.13;;
11797;SDS011;5956;51.428;6.682;2023-02-12T00:33:32;46.97;;;37.17;;
11797;SDS011;5956;51.428;6.682;2023-02-12T00:35:59;51.20;;;37.97;;
11797;SDS011;5956;51.428;6.682;2023-02-12T00:38:25;54.37;;;40.37;;
11797;SDS011;5956;51.428;6.682;2023-02-12T00:40:52;55.70;;;39.37;;
11797;SDS011;5956;51.428;6.682;2023-02-12T00:43:18;51.33;;;38.80;;
11797;SDS011;5956;51.428;6.682;2023-02-12T00:45:46;51.20;;;37.83;;
11797;SDS011;5956;51.428;6.682;2023-02-12T00:48:13;51.10;;;36.43;;
11797;SDS011;5956;51.428;6.682;2023-02-12T00:50:40;46.47;;;37.30;;
11797;SDS011;5956;51.428;6.682;2023-02-12T00:53:09;50.13;;;37.50;;
11797;SDS011;5956;51.428;6.682;2023-02-12T00:55:35;51.03;;;36.97;;
11797;SDS011;5956;51.428;6.682;2023-02-12T00:58:02;47.23;;;37.30;;
11797;SDS011;5956;51.428;6.682;2023-02-12T01:00:28;50.87;;;38.20;;
11797;SDS011;5956;51.428;6.682;2023-02-12T01:02:56;50.57;;;37.43;;
11797;SDS011;5956;51.428;6.682;2023-02-12T01:05:23;47.80;;;36.80;;
11797;SDS011;5956;51.428;6.682;2023-02-12T01:07:49;46.10;;;37.43;;
11797;SDS011;5956;51.428;6.682;2023-02-12T01:10:16;55.27;;;39.27;;
11797;SDS011;5956;51.428;6.682;2023-02-12T01:12:43;46.83;;;35.87;;
11797;SDS011;5956;51.428;6.682;2023-02-12T01:15:09;53.80;;;37.53;;
11797;SDS011;5956;51.428;6.682;2023-02-12T01:17:36;51.83;;;38.70;;
11797;SDS011;5956;51.428;6.682;2023-02-12T01:20:04;47.03;;;36.30;;
11797;SDS011;5956;51.428;6.682;2023-02-12T01:22:33;47.03;;;37.67;;
11797;SDS011;5956;51.428;6.682;2023-02-12T01:25:00;45.10;;;35.43;;
11797;SDS011;5956;51.428;6.682;2023-02-12T01:27:26;48.83;;;35.87;;
11797;SDS011;5956;51.428;6.682;2023-02-12T01:29:53;48.73;;;36.73;;
11797;SDS011;5956;51.428;6.682;2023-02-12T01:32:19;44.53;;;36.57;;
11797;SDS011;5956;51.428;6.682;2023-02-12T01:34:46;50.03;;;39.13;;
11797;SDS011;5956;51.428;6.682;2023-02-12T01:37:14;47.03;;;36.43;;
11797;SDS011;5956;51.428;6.682;2023-02-12T01:39:41;51.40;;;37.23;;
11797;SDS011;5956;51.428;6.682;2023-02-12T01:42:09;42.60;;;34.07;;
11797;SDS011;5956;51.428;6.682;2023-02-12T01:44:38;42.20;;;34.43;;
11797;SDS011;5956;51.428;6.682;2023-02-12T01:47:11;50.13;;;37.37;;
11797;SDS011;5956;51.428;6.682;2023-02-12T01:49:42;47.73;;;35.70;;
11797;SDS011;5956;51.428;6.682;2023-02-12T01:52:12;48.00;;;36.27;;
11797;SDS011;5956;51.428;6.682;2023-02-12T01:54:41;46.53;;;36.00;;
11797;SDS011;5956;51.428;6.682;2023-02-12T01:57:08;43.23;;;34.63;;
11797;SDS011;5956;51.428;6.682;2023-02-12T01:59:36;47.30;;;34.97;;
11797;SDS011;5956;51.428;6.682;2023-02-12T02:02:04;45.13;;;35.37;;
11797;SDS011;5956;51.428;6.682;2023-02-12T02:04:31;49.47;;;35.90;;
11797;SDS011;5956;51.428;6.682;2023-02-12T02:06:58;48.33;;;36.00;;
11797;SDS011;5956;51.428;6.682;2023-02-12T02:09:27;44.00;;;35.50;;
11797;SDS011;5956;51.428;6.682;2023-02-12T02:11:56;48.77;;;36.63;;
11797;SDS011;5956;51.428;6.682;2023-02-12T02:14:36;45.93;;;35.23;;
11797;SDS011;5956;51.428;6.682;2023-02-12T02:17:12;48.37;;;38.17;;
11797;SDS011;5956;51.428;6.682;2023-02-12T02:19:46;46.90;;;36.50;;
11797;SDS011;5956;51.428;6.682;2023-02-12T02:22:17;48.57;;;36.63;;
11797;SDS011;5956;51.428;6.682;2023-02-12T02:32:26;51.27;;;36.50;;
11797;SDS011;5956;51.428;6.682;2023-02-12T02:34:56;48.07;;;36.77;;
11797;SDS011;5956;51.428;6.682;2023-02-12T02:37:25;47.93;;;37.93;;
11797;SDS011;5956;51.428;6.682;2023-02-12T02:39:54;48.67;;;37.20;;
11797;SDS011;5956;51.428;6.682;2023-02-12T02:42:26;50.67;;;38.50;;
11797;SDS011;5956;51.428;6.682;2023-02-12T02:44:54;50.17;;;37.17;;
11797;SDS011;5956;51.428;6.682;2023-02-12T02:47:30;50.97;;;38.00;;
11797;SDS011;5956;51.428;6.682;2023-02-12T02:49:58;51.63;;;38.43;;
11797;SDS011;5956;51.428;6.682;2023-02-12T02:52:30;50.17;;;37.57;;
11797;SDS011;5956;51.428;6.682;2023-02-12T02:55:00;45.97;;;36.83;;
11797;SDS011;5956;51.428;6.682;2023-02-12T02:57:28;48.67;;;38.13;;
11797;SDS011;5956;51.428;6.682;2023-02-12T02:59:57;48.50;;;37.47;;
11797;SDS011;5956;51.428;6.682;2023-02-12T03:02:30;50.30;;;37.50;;
11797;SDS011;5956;51.428;6.682;2023-02-12T03:04:58;52.93;;;37.60;;
11797;SDS011;5956;51.428;6.682;2023-02-12T03:07:27;48.40;;;36.20;;
11797;SDS011;5956;51.428;6.682;2023-02-12T03:09:56;49.80;;;37.73;;
11797;SDS011;5956;51.428;6.682;2023-02-12T03:12:28;46.77;;;37.83;;
11797;SDS011;5956;51.428;6.682;2023-02-12T03:14:58;53.43;;;37.87;;
11797;SDS011;5956;51.428;6.682;2023-02-12T03:17:26;51.90;;;38.30;;
11797;SDS011;5956;51.428;6.682;2023-02-12T03:19:55;54.00;;;38.87;;
11797;SDS011;5956;51.428;6.682;2023-02-12T03:22:25;47.37;;;38.00;;
11797;SDS011;5956;51.428;6.682;2023-02-12T03:24:55;49.83;;;36.80;;
11797;SDS011;5956;51.428;6.682;2023-02-12T03:27:26;48.20;;;36.67;;
11797;SDS011;5956;51.428;6.682;2023-02-12T03:29:54;47.40;;;36.33;;
11797;SDS011;5956;51.428;6.682;2023-02-12T03:32:25;49.63;;;37.53;;
11797;SDS011;5956;51.428;6.682;2023-02-12T03:34:57;51.40;;;37.43;;
11797;SDS011;5956;51.428;6.682;2023-02-12T03:37:28;51.07;;;38.10;;
11797;SDS011;5956;51.428;6.682;2023-02-12T03:39:57;51.20;;;36.20;;
11797;SDS011;5956;51.428;6.682;2023-02-12T03:42:30;48.87;;;37.87;;
11797;SDS011;5956;51.428;6.682;2023-02-12T03:45:00;53.60;;;39.27;;
11797;SDS011;5956;51.428;6.682;2023-02-12T03:47:30;49.37;;;37.70;;
11797;SDS011;5956;51.428;6.682;2023-02-12T03:50:02;50.53;;;38.90;;
11797;SDS011;5956;51.428;6.682;2023-02-12T03:52:32;47.97;;;37.33;;
11797;SDS011;5956;51.428;6.682;2023-02-12T03:54:59;46.50;;;35.70;;
11797;SDS011;5956;51.428;6.682;2023-02-12T03:57:26;50.10;;;38.00;;
11797;SDS011;5956;51.428;6.682;2023-02-12T03:59:56;49.53;;;38.67;;
11797;SDS011;5956;51.428;6.682;2023-02-12T04:02:23;49.63;;;37.97;;
11797;SDS011;5956;51.428;6.682;2023-02-12T04:04:50;47.60;;;37.80;;
11797;SDS011;5956;51.428;6.682;2023-02-12T04:07:18;50.37;;;37.10;;
11797;SDS011;5956;51.428;6.682;2023-02-12T04:09:45;46.80;;;36.80;;
11797;SDS011;5956;51.428;6.682;2023-02-12T04:12:17;49.70;;;37.00;;
11797;SDS011;5956;51.428;6.682;2023-02-12T04:14:48;47.50;;;36.67;;
11797;SDS011;5956;51.428;6.682;2023-02-12T04:17:19;50.90;;;38.20;;
11797;SDS011;5956;51.428;6.682;2023-02-12T04:19:49;48.63;;;36.97;;
11797;SDS011;5956;51.428;6.682;2023-02-12T04:22:25;48.70;;;36.87;;
11797;SDS011;5956;51.428;6.682;2023-02-12T04:24:57;49.60;;;38.00;;
11797;SDS011;5956;51.428;6.682;2023-02-12T04:27:25;49.47;;;37.00;;
11797;SDS011;5956;51.428;6.682;2023-02-12T04:29:56;46.83;;;36.63;;
11797;SDS011;5956;51.428;6.682;2023-02-12T04:32:26;48.43;;;36.80;;
11797;SDS011;5956;51.428;6.682;2023-02-12T04:34:56;48.13;;;37.13;;
11797;SDS011;5956;51.428;6.682;2023-02-12T04:37:25;48.30;;;36.87;;
11797;SDS011;5956;51.428;6.682;2023-02-12T04:39:54;50.60;;;37.53;;
11797;SDS011;5956;51.428;6.682;2023-02-12T04:42:21;48.13;;;37.67;;
11797;SDS011;5956;51.428;6.682;2023-02-12T04:44:48;48.57;;;37.53;;
11797;SDS011;5956;51.428;6.682;2023-02-12T04:47:15;50.10;;;37.77;;
11797;SDS011;5956;51.428;6.682;2023-02-12T04:49:42;45.87;;;37.00;;
11797;SDS011;5956;51.428;6.682;2023-02-12T04:52:08;50.57;;;37.00;;
11797;SDS011;5956;51.428;6.682;2023-02-12T04:54:36;49.47;;;37.50;;
11797;SDS011;5956;51.428;6.682;2023-02-12T04:57:03;44.90;;;36.60;;
11797;SDS011;5956;51.428;6.682;2023-02-12T04:59:30;47.33;;;37.17;;
11797;SDS011;5956;51.428;6.682;2023-02-12T05:01:56;46.10;;;34.93;;
11797;SDS011;5956;51.428;6.682;2023-02-12T05:04:23;47.80;;;35.23;;
11797;SDS011;5956;51.428;6.682;2023-02-12T05:06:49;51.43;;;38.37;;
11797;SDS011;5956;51.428;6.682;2023-02-12T05:09:17;48.20;;;36.70;;
11797;SDS011;5956;51.428;6.682;2023-02-12T05:11:45;48.53;;;36.47;;
11797;SDS011;5956;51.428;6.682;2023-02-12T05:14:11;46.67;;;35.70;;
11797;SDS011;5956;51.428;6.682;2023-02-12T05:16:38;48.50;;;36.40;;
11797;SDS011;5956;51.428;6.682;2023-02-12T05:19:05;50.27;;;36.90;;
11797;SDS011;5956;51.428;6.682;2023-02-12T05:21:33;46.13;;;34.80;;
11797;SDS011;5956;51.428;6.682;2023-02-12T05:24:00;44.50;;;35.20;;
11797;SDS011;5956;51.428;6.682;2023-02-12T05:26:26;45.87;;;35.73;;
11797;SDS011;5956;51.428;6.682;2023-02-12T05:28:54;44.13;;;35.43;;
11797;SDS011;5956;51.428;6.682;2023-02-12T05:31:21;44.10;;;35.43;;
11797;SDS011;5956;51.428;6.682;2023-02-12T05:33:48;48.07;;;36.10;;
11797;SDS011;5956;51.428;6.682;2023-02-12T05:36:15;42.60;;;33.63;;
11797;SDS011;5956;51.428;6.682;2023-02-12T05:38:42;45.23;;;35.13;;
11797;SDS011;5956;51.428;6.682;2023-02-12T05:41:10;44.47;;;34.00;;
11797;SDS011;5956;51.428;6.682;2023-02-12T05:43:37;43.90;;;33.70;;
11797;SDS011;5956;51.428;6.682;2023-02-12T05:46:05;52.03;;;37.30;;
11797;SDS011;5956;51.428;6.682;2023-02-12T05:48:33;44.20;;;34.27;;
11797;SDS011;5956;51.428;6.682;2023-02-12T05:51:00;45.63;;;33.33;;
11797;SDS011;5956;51.428;6.682;2023-02-12T05:53:27;44.57;;;34.63;;
11797;SDS011;5956;51.428;6.682;2023-02-12T05:55:54;45.40;;;34.37;;
11797;SDS011;5956;51.428;6.682;2023-02-12T05:58:20;41.97;;;33.73;;
11797;SDS011;5956;51.428;6.682;2023-02-12T06:00:47;43.67;;;34.00;;
11797;SDS011;5956;51.428;6.682;2023-02-12T06:03:15;47.73;;;34.73;;
11797;SDS011;5956;51.428;6.682;2023-02-12T06:05:42;47.53;;;35.50;;
11797;SDS011;5956;51.428;6.682;2023-02-12T06:08:08;48.27;;;35.70;;
11797;SDS011;5956;51.428;6.682;2023-02-12T06:10:35;46.50;;;35.60;;
11797;SDS011;5956;51.428;6.682;2023-02-12T06:13:02;39.17;;;31.67;;
11797;SDS011;5956;51.428;6.682;2023-02-12T06:15:28;42.07;;;32.03;;
11797;SDS011;5956;51.428;6.682;2023-02-12T06:17:55;37.47;;;30.40;;
11797;SDS011;5956;51.428;6.682;2023-02-12T06:20:23;45.30;;;35.07;;
11797;SDS011;5956;51.428;6.682;2023-02-12T06:22:50;46.43;;;34.57;;
11797;SDS011;5956;51.428;6.682;2023-02-12T06:25:16;43.50;;;33.33;;
11797;SDS011;5956;51.428;6.682;2023-02-12T06:27:43;40.37;;;31.70;;
11797;SDS011;5956;51.428;6.682;2023-02-12T06:30:10;43.27;;;32.80;;
11797;SDS011;5956;51.428;6.682;2023-02-12T06:32:37;43.90;;;33.07;;
11797;SDS011;5956;51.428;6.682;2023-02-12T06:35:03;40.60;;;31.03;;
11797;SDS011;5956;51.428;6.682;2023-02-12T06:37:31;36.97;;;30.17;;
11797;SDS011;5956;51.428;6.682;2023-02-12T06:40:01;37.63;;;29.70;;
11797;SDS011;5956;51.428;6.682;2023-02-12T06:42:27;37.00;;;28.83;;
11797;SDS011;5956;51.428;6.682;2023-02-12T06:44:54;39.00;;;29.73;;
11797;SDS011;5956;51.428;6.682;2023-02-12T06:47:21;36.57;;;29.67;;
11797;SDS011;5956;51.428;6.682;2023-02-12T06:49:47;39.57;;;29.77;;
11797;SDS011;5956;51.428;6.682;2023-02-12T06:52:14;42.43;;;31.30;;
11797;SDS011;5956;51.428;6.682;2023-02-12T06:54:42;44.23;;;33.03;;
11797;SDS011;5956;51.428;6.682;2023-02-12T06:57:08;39.30;;;31.43;;
11797;SDS011;5956;51.428;6.682;2023-02-12T06:59:35;42.87;;;32.67;;
11797;SDS011;5956;51.428;6.682;2023-02-12T07:02:01;41.63;;;33.73;;
11797;SDS011;5956;51.428;6.682;2023-02-12T07:04:28;43.27;;;33.67;;
11797;SDS011;5956;51.428;6.682;2023-02-12T07:06:54;43.57;;;35.43;;
11797;SDS011;5956;51.428;6.682;2023-02-12T07:09:21;47.27;;;35.07;;
11797;SDS011;5956;51.428;6.682;2023-02-12T07:11:49;41.07;;;33.07;;
11797;SDS011;5956;51.428;6.682;2023-02-12T07:14:16;44.63;;;35.37;;
11797;SDS011;5956;51.428;6.682;2023-02-12T07:16:42;39.30;;;31.53;;
11797;SDS011;5956;51.428;6.682;2023-02-12T07:19:10;45.00;;;34.20;;
11797;SDS011;5956;51.428;6.682;2023-02-12T07:21:37;45.80;;;37.13;;
11797;SDS011;5956;51.428;6.682;2023-02-12T07:24:04;44.70;;;33.07;;
11797;SDS011;5956;51.428;6.682;2023-02-12T07:26:30;46.03;;;34.93;;
11797;SDS011;5956;51.428;6.682;2023-02-12T07:28:58;48.30;;;35.17;;
11797;SDS011;5956;51.428;6.682;2023-02-12T07:31:25;41.40;;;32.70;;
11797;SDS011;5956;51.428;6.682;2023-02-12T07:33:52;40.47;;;32.83;;
11797;SDS011;5956;51.428;6.682;2023-02-12T07:36:19;49.53;;;37.03;;
11797;SDS011;5956;51.428;6.682;2023-02-12T07:38:45;49.13;;;35.70;;
11797;SDS011;5956;51.428;6.682;2023-02-12T07:41:13;48.03;;;35.83;;
11797;SDS011;5956;51.428;6.682;2023-02-12T07:43:40;50.10;;;36.37;;
11797;SDS011;5956;51.428;6.682;2023-02-12T07:46:09;45.37;;;35.93;;
11797;SDS011;5956;51.428;6.682;2023-02-12T07:48:36;45.97;;;35.40;;
11797;SDS011;5956;51.428;6.682;2023-02-12T07:51:04;47.00;;;35.03;;
11797;SDS011;5956;51.428;6.682;2023-02-12T07:53:31;47.37;;;35.50;;
11797;SDS011;5956;51.428;6.682;2023-02-12T07:56:03;47.30;;;35.40;;
11797;SDS011;5956;51.428;6.682;2023-02-12T07:58:30;50.53;;;36.57;;
11797;SDS011;5956;51.428;6.682;2023-02-12T08:00:56;44.33;;;35.03;;
11797;SDS011;5956;51.428;6.682;2023-02-12T08:03:24;45.13;;;34.27;;
11797;SDS011;5956;51.428;6.682;2023-02-12T08:05:52;49.73;;;37.37;;
11797;SDS011;5956;51.428;6.682;2023-02-12T08:08:19;49.60;;;37.43;;
11797;SDS011;5956;51.428;6.682;2023-02-12T08:10:46;51.97;;;37.80;;
11797;SDS011;5956;51.428;6.682;2023-02-12T08:13:12;48.37;;;35.47;;
11797;SDS011;5956;51.428;6.682;2023-02-12T08:15:39;48.97;;;38.87;;
11797;SDS011;5956;51.428;6.682;2023-02-12T08:18:06;49.63;;;37.00;;
11797;SDS011;5956;51.428;6.682;2023-02-12T08:20:34;48.47;;;37.03;;
11797;SDS011;5956;51.428;6.682;2023-02-12T08:23:00;50.70;;;37.07;;
11797;SDS011;5956;51.428;6.682;2023-02-12T08:25:27;47.23;;;36.77;;
11797;SDS011;5956;51.428;6.682;2023-02-12T08:27:53;47.80;;;36.83;;
11797;SDS011;5956;51.428;6.682;2023-02-12T08:30:20;52.40;;;38.17;;
11797;SDS011;5956;51.428;6.682;2023-02-12T08:32:47;46.70;;;34.87;;
11797;SDS011;5956;51.428;6.682;2023-02-12T08:35:14;47.73;;;38.63;;
11797;SDS011;5956;51.428;6.682;2023-02-12T08:37:42;52.37;;;38.07;;
11797;SDS011;5956;51.428;6.682;2023-02-12T08:40:09;50.17;;;37.67;;
11797;SDS011;5956;51.428;6.682;2023-02-12T08:42:38;52.70;;;39.83;;
11797;SDS011;5956;51.428;6.682;2023-02-12T08:45:04;51.73;;;37.87;;
11797;SDS011;5956;51.428;6.682;2023-02-12T08:47:31;49.77;;;38.27;;
11797;SDS011;5956;51.428;6.682;2023-02-12T08:49:58;52.10;;;38.40;;
11797;SDS011;5956;51.428;6.682;2023-02-12T08:52:24;52.93;;;39.47;;
11797;SDS011;5956;51.428;6.682;2023-02-12T08:54:52;52.70;;;39.27;;
11797;SDS011;5956;51.428;6.682;2023-02-12T08:57:19;51.93;;;39.13;;
11797;SDS011;5956;51.428;6.682;2023-02-12T08:59:47;51.07;;;38.53;;
11797;SDS011;5956;51.428;6.682;2023-02-12T09:02:13;54.63;;;39.50;;
11797;SDS011;5956;51.428;6.682;2023-02-12T09:04:40;54.53;;;39.60;;
11797;SDS011;5956;51.428;6.682;2023-02-12T09:07:07;51.20;;;37.47;;
11797;SDS011;5956;51.428;6.682;2023-02-12T09:09:33;53.17;;;38.10;;
11797;SDS011;5956;51.428;6.682;2023-02-12T09:12:01;50.57;;;39.00;;
11797;SDS011;5956;51.428;6.682;2023-02-12T09:14:28;50.80;;;39.47;;
11797;SDS011;5956;51.428;6.682;2023-02-12T09:16:55;54.67;;;40.03;;
11797;SDS011;5956;51.428;6.682;2023-02-12T09:19:22;51.07;;;38.50;;
11797;SDS011;5956;51.428;6.682;2023-02-12T09:21:49;48.93;;;38.53;;
11797;SDS011;5956;51.428;6.682;2023-02-12T09:24:16;52.77;;;40.20;;
11797;SDS011;5956;51.428;6.682;2023-02-12T09:26:43;49.07;;;37.93;;
11797;SDS011;5956;51.428;6.682;2023-02-12T09:29:11;46.37;;;37.27;;
11797;SDS011;5956;51.428;6.682;2023-02-12T09:31:37;49.00;;;38.23;;
11797;SDS011;5956;51.428;6.682;2023-02-12T09:34:05;51.07;;;37.27;;
11797;SDS011;5956;51.428;6.682;2023-02-12T09:36:32;50.10;;;36.13;;
11797;SDS011;5956;51.428;6.682;2023-02-12T09:39:00;49.33;;;37.83;;
11797;SDS011;5956;51.428;6.682;2023-02-12T09:49:06;47.27;;;36.93;;
11797;SDS011;5956;51.428;6.682;2023-02-12T09:51:34;47.67;;;37.63;;
11797;SDS011;5956;51.428;6.682;2023-02-12T09:54:02;45.37;;;34.67;;
11797;SDS011;5956;51.428;6.682;2023-02-12T09:56:30;45.07;;;36.73;;
11797;SDS011;5956;51.428;6.682;2023-02-12T09:58:57;49.83;;;35.73;;
11797;SDS011;5956;51.428;6.682;2023-02-12T10:01:25;48.50;;;36.67;;
11797;SDS011;5956;51.428;6.682;2023-02-12T10:03:53;46.70;;;36.67;;
11797;SDS011;5956;51.428;6.682;2023-02-12T10:06:22;45.03;;;36.47;;
11797;SDS011;5956;51.428;6.682;2023-02-12T10:08:56;42.07;;;34.77;;
11797;SDS011;5956;51.428;6.682;2023-02-12T10:11:29;41.93;;;34.87;;
11797;SDS011;5956;51.428;6.682;2023-02-12T10:14:01;42.60;;;34.17;;
11797;SDS011;5956;51.428;6.682;2023-02-12T10:16:35;41.97;;;33.47;;
11797;SDS011;5956;51.428;6.682;2023-02-12T10:19:05;39.00;;;31.63;;
11797;SDS011;5956;51.428;6.682;2023-02-12T10:21:41;40.63;;;32.90;;
11797;SDS011;5956;51.428;6.682;2023-02-12T10:24:13;37.03;;;29.83;;
11797;SDS011;5956;51.428;6.682;2023-02-12T10:26:43;37.27;;;29.87;;
11797;SDS011;5956;51.428;6.682;2023-02-12T10:29:12;35.63;;;30.03;;
11797;SDS011;5956;51.428;6.682;2023-02-12T10:31:41;34.67;;;28.60;;
11797;SDS011;5956;51.428;6.682;2023-02-12T10:34:12;36.63;;;28.23;;
11797;SDS011;5956;51.428;6.682;2023-02-12T10:36:42;33.13;;;28.70;;
11797;SDS011;5956;51.428;6.682;2023-02-12T10:39:11;34.90;;;29.57;;
11797;SDS011;5956;51.428;6.682;2023-02-12T10:41:40;31.27;;;26.83;;
11797;SDS011;5956;51.428;6.682;2023-02-12T10:44:08;31.97;;;26.40;;
11797;SDS011;5956;51.428;6.682;2023-02-12T10:46:35;33.60;;;28.23;;
11797;SDS011;5956;51.428;6.682;2023-02-12T10:49:03;28.40;;;25.40;;
11797;SDS011;5956;51.428;6.682;2023-02-12T10:51:37;33.03;;;27.10;;
11797;SDS011;5956;51.428;6.682;2023-02-12T11:01:41;30.80;;;25.60;;
11797;SDS011;5956;51.428;6.682;2023-02-12T11:04:20;27.23;;;23.17;;
11797;SDS011;5956;51.428;6.682;2023-02-12T11:06:56;27.07;;;24.13;;
11797;SDS011;5956;51.428;6.682;2023-02-12T11:09:26;23.17;;;20.73;;
11797;SDS011;5956;51.428;6.682;2023-02-12T11:11:53;25.20;;;21.47;;
11797;SDS011;5956;51.428;6.682;2023-02-12T11:14:20;23.90;;;20.97;;
11797;SDS011;5956;51.428;6.682;2023-02-12T11:16:51;23.10;;;20.70;;
11797;SDS011;5956;51.428;6.682;2023-02-12T11:19:20;23.87;;;21.27;;
11797;SDS011;5956;51.428;6.682;2023-02-12T11:21:48;25.60;;;22.77;;
11797;SDS011;5956;51.428;6.682;2023-02-12T11:24:27;26.37;;;23.07;;
11797;SDS011;5956;51.428;6.682;2023-02-12T11:27:10;26.43;;;23.00;;
11797;SDS011;5956;51.428;6.682;2023-02-12T11:29:37;27.97;;;23.87;;
11797;SDS011;5956;51.428;6.682;2023-02-12T11:32:05;26.53;;;23.07;;
11797;SDS011;5956;51.428;6.682;2023-02-12T11:34:33;26.97;;;24.17;;
11797;SDS011;5956;51.428;6.682;2023-02-12T11:37:00;24.33;;;21.47;;
11797;SDS011;5956;51.428;6.682;2023-02-12T11:39:27;26.40;;;22.93;;
11797;SDS011;5956;51.428;6.682;2023-02-12T11:41:57;25.27;;;22.57;;
11797;SDS011;5956;51.428;6.682;2023-02-12T11:44:25;24.50;;;21.17;;
11797;SDS011;5956;51.428;6.682;2023-02-12T11:46:53;24.30;;;21.73;;
11797;SDS011;5956;51.428;6.682;2023-02-12T11:49:22;23.90;;;20.93;;
11797;SDS011;5956;51.428;6.682;2023-02-12T11:51:50;22.63;;;20.20;;
11797;SDS011;5956;51.428;6.682;2023-02-12T11:54:17;22.10;;;19.73;;
11797;SDS011;5956;51.428;6.682;2023-02-12T11:56:45;23.47;;;20.47;;
11797;SDS011;5956;51.428;6.682;2023-02-12T11:59:19;22.80;;;20.10;;
11797;SDS011;5956;51.428;6.682;2023-02-12T12:01:46;22.00;;;18.93;;
11797;SDS011;5956;51.428;6.682;2023-02-12T12:04:14;22.60;;;19.83;;
11797;SDS011;5956;51.428;6.682;2023-02-12T12:06:45;21.63;;;19.13;;
11797;SDS011;5956;51.428;6.682;2023-02-12T12:09:13;20.63;;;18.53;;
11797;SDS011;5956;51.428;6.682;2023-02-12T12:11:45;22.33;;;19.00;;
11797;SDS011;5956;51.428;6.682;2023-02-12T12:14:15;23.00;;;20.50;;
11797;SDS011;5956;51.428;6.682;2023-02-12T12:16:43;23.17;;;20.70;;
11797;SDS011;5956;51.428;6.682;2023-02-12T12:19:27;24.93;;;20.20;;
11797;SDS011;5956;51.428;6.682;2023-02-12T12:22:15;22.57;;;19.83;;
11797;SDS011;5956;51.428;6.682;2023-02-12T12:24:44;25.97;;;22.03;;
11797;SDS011;5956;51.428;6.682;2023-02-12T12:27:14;25.60;;;21.87;;
11797;SDS011;5956;51.428;6.682;2023-02-12T12:29:45;25.83;;;21.97;;
11797;SDS011;5956;51.428;6.682;2023-02-12T12:32:14;24.80;;;22.00;;
11797;SDS011;5956;51.428;6.682;2023-02-12T12:34:41;29.53;;;23.97;;
11797;SDS011;5956;51.428;6.682;2023-02-12T12:37:15;25.13;;;22.47;;
11797;SDS011;5956;51.428;6.682;2023-02-12T12:39:47;21.60;;;19.20;;
11797;SDS011;5956;51.428;6.682;2023-02-12T12:42:27;28.93;;;23.23;;
11797;SDS011;5956;51.428;6.682;2023-02-12T12:45:01;30.63;;;24.37;;
11797;SDS011;5956;51.428;6.682;2023-02-12T12:47:32;12.43;;;11.20;;
11797;SDS011;5956;51.428;6.682;2023-02-12T12:50:04;28.60;;;21.83;;
11797;SDS011;5956;51.428;6.682;2023-02-12T12:55:26;30.13;;;25.07;;
11797;SDS011;5956;51.428;6.682;2023-02-12T12:57:59;30.73;;;25.50;;
11797;SDS011;5956;51.428;6.682;2023-02-12T13:00:32;31.10;;;26.50;;
11797;SDS011;5956;51.428;6.682;2023-02-12T13:03:07;33.10;;;26.53;;
11797;SDS011;5956;51.428;6.682;2023-02-12T13:05:43;33.53;;;27.77;;
11797;SDS011;5956;51.428;6.682;2023-02-12T13:08:16;33.10;;;28.10;;
11797;SDS011;5956;51.428;6.682;2023-02-12T13:10:47;31.27;;;27.67;;
11797;SDS011;5956;51.428;6.682;2023-02-12T13:13:19;31.73;;;27.27;;
11797;SDS011;5956;51.428;6.682;2023-02-12T13:15:49;37.37;;;30.07;;
11797;SDS011;5956;51.428;6.682;2023-02-12T13:18:20;38.53;;;30.37;;
11797;SDS011;5956;51.428;6.682;2023-02-12T13:20:50;39.83;;;32.07;;
11797;SDS011;5956;51.428;6.682;2023-02-12T13:23:22;39.70;;;31.77;;
11797;SDS011;5956;51.428;6.682;2023-02-12T13:25:55;40.40;;;30.97;;
11797;SDS011;5956;51.428;6.682;2023-02-12T13:28:26;35.93;;;29.50;;
11797;SDS011;5956;51.428;6.682;2023-02-12T13:30:54;33.90;;;28.20;;
11797;SDS011;5956;51.428;6.682;2023-02-12T13:33:22;36.03;;;29.13;;
11797;SDS011;5956;51.428;6.682;2023-02-12T13:35:50;31.30;;;26.67;;
11797;SDS011;5956;51.428;6.682;2023-02-12T13:38:20;34.17;;;27.93;;
11797;SDS011;5956;51.428;6.682;2023-02-12T13:40:48;34.73;;;27.20;;
11797;SDS011;5956;51.428;6.682;2023-02-12T13:43:18;29.73;;;26.60;;
11797;SDS011;5956;51.428;6.682;2023-02-12T13:45:48;34.23;;;26.17;;
11797;SDS011;5956;51.428;6.682;2023-02-12T13:48:21;33.00;;;25.57;;
11797;SDS011;5956;51.428;6.682;2023-02-12T13:50:50;33.97;;;28.13;;
11797;SDS011;5956;51.428;6.682;2023-02-12T13:53:24;30.70;;;26.17;;
11797;SDS011;5956;51.428;6.682;2023-02-12T13:55:55;30.97;;;26.03;;
11797;SDS011;5956;51.428;6.682;2023-02-12T14:06:11;29.40;;;24.87;;
11797;SDS011;5956;51.428;6.682;2023-02-12T14:08:39;29.90;;;25.50;;
11797;SDS011;5956;51.428;6.682;2023-02-12T14:11:07;30.13;;;24.90;;
11797;SDS011;5956;51.428;6.682;2023-02-12T14:13:34;29.40;;;25.80;;
11797;SDS011;5956;51.428;6.682;2023-02-12T14:16:17;29.63;;;25.53;;
11797;SDS011;5956;51.428;6.682;2023-02-12T14:18:44;27.93;;;23.80;;
11797;SDS011;5956;51.428;6.682;2023-02-12T14:23:54;29.47;;;25.13;;
11797;SDS011;5956;51.428;6.682;2023-02-12T14:26:40;29.87;;;24.87;;
11797;SDS011;5956;51.428;6.682;2023-02-12T14:29:14;29.63;;;24.77;;
11797;SDS011;5956;51.428;6.682;2023-02-12T14:31:41;32.07;;;26.30;;
11797;SDS011;5956;51.428;6.682;2023-02-12T14:41:53;29.33;;;24.67;;
11797;SDS011;5956;51.428;6.682;2023-02-12T14:47:03;26.30;;;22.13;;
11797;SDS011;5956;51.428;6.682;2023-02-12T14:49:32;26.87;;;23.60;;
11797;SDS011;5956;51.428;6.682;2023-02-12T14:52:00;28.63;;;23.03;;
11797;SDS011;5956;51.428;6.682;2023-02-12T14:54:29;28.33;;;23.63;;
11797;SDS011;5956;51.428;6.682;2023-02-12T14:57:00;28.73;;;23.83;;
11797;SDS011;5956;51.428;6.682;2023-02-12T14:59:32;25.80;;;19.43;;
11797;SDS011;5956;51.428;6.682;2023-02-12T15:02:00;30.40;;;24.23;;
11797;SDS011;5956;51.428;6.682;2023-02-12T15:04:29;33.20;;;25.57;;
11797;SDS011;5956;51.428;6.682;2023-02-12T15:06:58;27.63;;;24.63;;
11797;SDS011;5956;51.428;6.682;2023-02-12T15:09:28;28.80;;;25.17;;
11797;SDS011;5956;51.428;6.682;2023-02-12T15:12:02;29.73;;;24.80;;
11797;SDS011;5956;51.428;6.682;2023-02-12T15:14:33;30.10;;;24.93;;
11797;SDS011;5956;51.428;6.682;2023-02-12T15:17:02;31.83;;;25.23;;
11797;SDS011;5956;51.428;6.682;2023-02-12T15:19:36;31.23;;;24.90;;
11797;SDS011;5956;51.428;6.682;2023-02-12T15:22:12;28.13;;;23.77;;
11797;SDS011;5956;51.428;6.682;2023-02-12T15:29:50;28.57;;;24.93;;
11797;SDS011;5956;51.428;6.682;2023-02-12T15:32:18;33.93;;;26.53;;
11797;SDS011;5956;51.428;6.682;2023-02-12T15:34:48;32.97;;;25.67;;